Wetterdaten: Woche 31.12.12 - 06.01.13 (KW1)
Datum Zeit Temp. A. Feuchte A. Luftdruck Regen Wind Richtung Taupunkt Windchill Windben
31.12.2012 00:00 -2,8 C 85 % 1027,0 hPa 0,0 l/m 0,0 km/h N -4,9 C -2,8 C 1,2 km/h
31.12.2012 01:00 -3,3 C 85 % 1027,0 hPa 0,0 l/m 0,0 km/h N -5,5 C -3,3 C 0,8 km/h
31.12.2012 02:00 -3,7 C 85 % 1027,3 hPa 0,0 l/m 0,2 km/h N -5,8 C -3,7 C 3,6 km/h
31.12.2012 03:00 -3,8 C 84 % 1027,1 hPa 0,0 l/m 0,2 km/h N -6,1 C -3,8 C 2,8 km/h
31.12.2012 04:00 -4,3 C 84 % 1027,1 hPa 0,0 l/m 0,1 km/h N -6,5 C -4,3 C 1,2 km/h
31.12.2012 05:00 -4,1 C 84 % 1027,3 hPa 0,0 l/m 0,2 km/h N -6,5 C -4,1 C 2,0 km/h
31.12.2012 06:00 -4,0 C 84 % 1027,4 hPa 0,0 l/m 0,2 km/h N -6,3 C -4,0 C 1,6 km/h
31.12.2012 07:00 -4,3 C 84 % 1027,3 hPa 0,0 l/m 0,1 km/h N -6,6 C -4,3 C 0,8 km/h
31.12.2012 08:00 -4,2 C 83 % 1027,4 hPa 0,0 l/m 0,1 km/h N -6,6 C -4,2 C 1,2 km/h
31.12.2012 09:00 -1,4 C 81 % 1027,3 hPa 0,3 l/m 0,0 km/h N -4,2 C -1,4 C 0,8 km/h
31.12.2012 10:00 3,3 C 80 % 1026,6 hPa 0,0 l/m 1,1 km/h N 0,2 C 3,3 C 6,0 km/h
31.12.2012 11:00 8,9 C 57 % 1025,4 hPa 0,0 l/m 4,3 km/h N 0,6 C 8,9 C 16,1 km/h
31.12.2012 12:00 10,2 C 48 % 1024,2 hPa 0,0 l/m 5,9 km/h N -0,3 C 10,1 C 17,3 km/h
31.12.2012 13:00 9,3 C 59 % 1023,5 hPa 0,0 l/m 2,8 km/h N 1,6 C 9,3 C 9,7 km/h
31.12.2012 14:00 7,4 C 67 % 1022,9 hPa 0,0 l/m 0,3 km/h N 1,7 C 7,4 C 3,2 km/h
31.12.2012 15:00 6,0 C 68 % 1022,3 hPa 0,0 l/m 0,0 km/h N 0,5 C 6,0 C 0,8 km/h
31.12.2012 16:00 3,3 C 72 % 1022,0 hPa 0,0 l/m 0,0 km/h N -1,3 C 3,3 C 0,0 km/h
31.12.2012 17:00 1,1 C 79 % 1021,5 hPa 0,0 l/m 0,0 km/h N -2,2 C 1,1 C 0,0 km/h
31.12.2012 18:00 -0,2 C 83 % 1021,0 hPa 0,0 l/m 0,0 km/h N -2,8 C -0,2 C 0,0 km/h
31.12.2012 19:00 -1,1 C 84 % 1020,3 hPa 0,0 l/m 0,0 km/h N -3,4 C -1,1 C 0,0 km/h
31.12.2012 20:00 -2,0 C 85 % 1019,5 hPa 0,0 l/m 0,0 km/h N -4,2 C -2,0 C 0,0 km/h
31.12.2012 21:00 -2,2 C 85 % 1018,7 hPa 0,0 l/m 0,0 km/h N -4,4 C -2,2 C 0,0 km/h
31.12.2012 22:00 -2,3 C 85 % 1017,7 hPa 0,0 l/m 0,0 km/h N -4,4 C -2,3 C 0,8 km/h
31.12.2012 23:00 -2,2 C 84 % 1016,8 hPa 0,0 l/m 0,0 km/h N -4,5 C -2,2 C 1,2 km/h
01.01.2013 00:00 -2,0 C 84 % 1016,0 hPa 0,0 l/m 0,1 km/h N -4,3 C -2,0 C 1,2 km/h
01.01.2013 01:00 -2,4 C 84 % 1015,6 hPa 0,0 l/m 0,2 km/h N -4,8 C -2,4 C 2,0 km/h
01.01.2013 02:00 -2,3 C 83 % 1015,3 hPa 0,0 l/m 0,2 km/h N -4,8 C -2,3 C 3,2 km/h
01.01.2013 03:00 -2,5 C 83 % 1014,9 hPa 0,0 l/m 0,2 km/h N -5,0 C -2,5 C 2,4 km/h
01.01.2013 04:00 -2,8 C 83 % 1014,3 hPa 0,0 l/m 0,2 km/h N -5,2 C -2,8 C 3,2 km/h
01.01.2013 05:00 -2,9 C 83 % 1013,8 hPa 0,0 l/m 0,1 km/h N -5,4 C -2,9 C 1,2 km/h
01.01.2013 06:00 -3,3 C 83 % 1013,7 hPa 0,0 l/m 0,1 km/h N -5,7 C -3,3 C 2,0 km/h
01.01.2013 07:00 -3,6 C 83 % 1014,1 hPa 0,0 l/m 0,4 km/h N -6,0 C -3,6 C 2,8 km/h
01.01.2013 08:00 -3,1 C 83 % 1014,4 hPa 0,0 l/m 0,2 km/h N -5,6 C -3,1 C 1,6 km/h
01.01.2013 09:00 -2,0 C 82 % 1014,6 hPa 0,0 l/m 0,0 km/h N -4,8 C -2,0 C 0,4 km/h
01.01.2013 10:00 -0,9 C 81 % 1014,7 hPa 0,3 l/m 0,3 km/h N -3,6 C -0,9 C 2,8 km/h
01.01.2013 11:00 -0,4 C 81 % 1014,6 hPa 0,0 l/m 0,3 km/h N -3,2 C -0,4 C 2,8 km/h
01.01.2013 12:00 -0,2 C 82 % 1014,4 hPa 0,0 l/m 0,9 km/h N -2,9 C -0,2 C 6,8 km/h
01.01.2013 13:00 -0,2 C 83 % 1014,4 hPa 0,0 l/m 0,3 km/h N -2,7 C -0,2 C 2,8 km/h
01.01.2013 14:00 -0,2 C 83 % 1014,7 hPa 0,0 l/m 0,2 km/h N -2,7 C -0,2 C 2,8 km/h
01.01.2013 15:00 -0,3 C 84 % 1014,9 hPa 0,0 l/m 0,1 km/h N -2,7 C -0,3 C 2,8 km/h
01.01.2013 16:00 -0,3 C 84 % 1015,2 hPa 0,0 l/m 0,0 km/h N -2,7 C -0,3 C 1,2 km/h
01.01.2013 17:00 -0,3 C 84 % 1015,4 hPa 0,0 l/m 0,3 km/h N -2,6 C -0,3 C 3,2 km/h
01.01.2013 18:00 -0,2 C 84 % 1015,7 hPa 0,0 l/m 1,0 km/h N -2,5 C -0,2 C 5,6 km/h
01.01.2013 19:00 -0,2 C 85 % 1015,9 hPa 0,0 l/m 0,9 km/h N -2,4 C -0,2 C 6,0 km/h
01.01.2013 20:00 -0,2 C 85 % 1016,2 hPa 0,0 l/m 0,9 km/h N -2,4 C -0,2 C 6,4 km/h
01.01.2013 21:00 -0,2 C 85 % 1016,5 hPa 0,0 l/m 1,5 km/h N -2,4 C -0,2 C 6,8 km/h
01.01.2013 22:00 -0,3 C 85 % 1016,7 hPa 0,0 l/m 2,2 km/h N -2,5 C -0,3 C 7,6 km/h
01.01.2013 23:00 -0,4 C 84 % 1017,0 hPa 0,0 l/m 2,8 km/h N -2,8 C -0,4 C 7,6 km/h
02.01.2013 00:00 -0,8 C 84 % 1017,2 hPa 0,0 l/m 4,0 km/h N -3,1 C -0,8 C 11,3 km/h
02.01.2013 01:00 -1,1 C 83 % 1017,5 hPa 0,0 l/m 3,2 km/h N -3,6 C -1,1 C 10,1 km/h
02.01.2013 02:00 -1,3 C 82 % 1018,0 hPa 0,0 l/m 3,2 km/h N -3,9 C -1,3 C 8,8 km/h
02.01.2013 03:00 -1,6 C 82 % 1018,5 hPa 0,0 l/m 4,4 km/h N -4,2 C -1,6 C 10,1 km/h
02.01.2013 04:00 -1,7 C 82 % 1018,8 hPa 0,0 l/m 3,8 km/h N -4,4 C -1,7 C 10,5 km/h
02.01.2013 05:00 -1,7 C 81 % 1019,2 hPa 0,0 l/m 2,4 km/h N -4,5 C -1,7 C 7,6 km/h
02.01.2013 06:00 -1,6 C 81 % 1019,9 hPa 0,0 l/m 1,3 km/h N -4,4 C -1,6 C 5,6 km/h
02.01.2013 07:00 -1,3 C 80 % 1020,7 hPa 0,0 l/m 0,3 km/h N -4,3 C -1,3 C 3,2 km/h
02.01.2013 08:00 -1,3 C 80 % 1021,7 hPa 0,0 l/m 1,4 km/h N -4,2 C -1,3 C 6,4 km/h
02.01.2013 09:00 -1,1 C 80 % 1022,8 hPa 0,0 l/m 0,2 km/h N -4,1 C -1,1 C 2,8 km/h
02.01.2013 10:00 -0,5 C 79 % 1023,6 hPa 0,5 l/m 0,0 km/h N -3,6 C -0,5 C 1,2 km/h
02.01.2013 11:00 1,5 C 78 % 1024,1 hPa 0,0 l/m 2,8 km/h N -2,0 C 0,8 C 11,3 km/h
02.01.2013 12:00 4,0 C 79 % 1024,1 hPa 0,0 l/m 7,5 km/h N 0,7 C 2,7 C 18,5 km/h
02.01.2013 13:00 4,9 C 82 % 1024,5 hPa 0,0 l/m 11,3 km/h N 2,0 C 1,2 C 27,3 km/h
02.01.2013 14:00 5,3 C 75 % 1025,0 hPa 0,0 l/m 8,6 km/h N 1,2 C 3,4 C 22,1 km/h
02.01.2013 15:00 5,2 C 73 % 1026,0 hPa 0,0 l/m 9,6 km/h N 0,6 C 2,6 C 24,5 km/h
02.01.2013 16:00 4,9 C 72 % 1026,8 hPa 0,0 l/m 8,9 km/h N 0,4 C 2,9 C 25,4 km/h
02.01.2013 17:00 5,0 C 73 % 1027,5 hPa 0,0 l/m 10,9 km/h N 0,5 C 1,6 C 26,9 km/h
02.01.2013 18:00 5,0 C 72 % 1028,3 hPa 0,0 l/m 8,7 km/h N 0,3 C 3,1 C 23,7 km/h
02.01.2013 19:00 4,8 C 71 % 1029,3 hPa 0,0 l/m 9,7 km/h N -0,1 C 2,1 C 24,6 km/h
02.01.2013 20:00 4,3 C 72 % 1029,8 hPa 0,0 l/m 4,4 km/h N -0,3 C 3,8 C 14,1 km/h
02.01.2013 21:00 3,3 C 76 % 1030,3 hPa 0,0 l/m 3,3 km/h N -0,6 C 3,3 C 15,7 km/h
02.01.2013 22:00 4,2 C 72 % 1031,0 hPa 0,0 l/m 4,6 km/h N -0,5 C 3,8 C 14,9 km/h
02.01.2013 23:00 4,5 C 71 % 1031,2 hPa 0,0 l/m 9,6 km/h N -0,3 C 1,8 C 23,3 km/h
03.01.2013 00:00 4,7 C 71 % 1031,3 hPa 0,0 l/m 14,5 km/h N -0,1 C -1,0 C 31,0 km/h
03.01.2013 01:00 4,4 C 72 % 1031,9 hPa 0,0 l/m 10,6 km/h N -0,2 C 1,0 C 24,9 km/h
03.01.2013 02:00 4,0 C 73 % 1032,3 hPa 0,0 l/m 6,2 km/h N -0,4 C 3,4 C 17,3 km/h
03.01.2013 03:00 3,8 C 73 % 1032,3 hPa 0,0 l/m 3,7 km/h N -0,6 C 3,8 C 12,1 km/h
03.01.2013 04:00 3,7 C 72 % 1032,3 hPa 0,0 l/m 1,8 km/h N -0,9 C 3,7 C 6,1 km/h
03.01.2013 05:00 1,2 C 72 % 1032,6 hPa 0,0 l/m 0,0 km/h N -3,2 C 1,2 C 0,0 km/h
03.01.2013 06:00 -1,0 C 81 % 1033,0 hPa 0,0 l/m 0,2 km/h N -3,8 C -1,0 C 2,0 km/h
03.01.2013 07:00 -1,3 C 85 % 1033,0 hPa 0,0 l/m 0,1 km/h N -3,5 C -1,3 C 0,8 km/h
03.01.2013 08:00 -0,9 C 85 % 1033,1 hPa 0,0 l/m 0,4 km/h N -3,0 C -0,9 C 4,0 km/h
03.01.2013 09:00 0,8 C 85 % 1032,8 hPa 0,0 l/m 0,2 km/h N -1,4 C 0,8 C 2,4 km/h
03.01.2013 10:00 3,3 C 80 % 1032,3 hPa 0,0 l/m 0,2 km/h N 0,0 C 3,3 C 2,4 km/h
03.01.2013 11:00 5,6 C 68 % 1031,2 hPa 0,0 l/m 1,3 km/h N 0,0 C 5,6 C 7,2 km/h
03.01.2013 12:00 7,6 C 52 % 1030,3 hPa 0,0 l/m 8,3 km/h N -1,7 C 6,1 C 26,1 km/h
03.01.2013 13:00 6,6 C 62 % 1029,2 hPa 2,1 l/m 15,6 km/h N -0,3 C 0,8 C 43,9 km/h
03.01.2013 14:00 5,4 C 71 % 1028,4 hPa 2,3 l/m 17,6 km/h N 0,5 C -1,6 C 45,1 km/h
03.01.2013 15:00 5,9 C 69 % 1027,5 hPa 0,0 l/m 20,0 km/h N 0,7 C -1,9 C 53,1 km/h
03.01.2013 16:00 6,2 C 69 % 1027,9 hPa 0,0 l/m 19,6 km/h N 0,9 C -1,4 C 55,9 km/h
03.01.2013 17:00 6,3 C 71 % 1028,5 hPa 0,0 l/m 22,9 km/h N 1,3 C -2,6 C 49,9 km/h
03.01.2013 18:00 5,8 C 79 % 1028,8 hPa 0,5 l/m 22,6 km/h N 2,4 C -3,0 C 49,5 km/h
03.01.2013 19:00 6,3 C 77 % 1029,0 hPa 0,0 l/m 22,1 km/h N 2,6 C -2,2 C 51,9 km/h
03.01.2013 20:00 6,8 C 75 % 1028,9 hPa 0,0 l/m 19,7 km/h N 2,7 C -0,7 C 39,8 km/h
03.01.2013 21:00 7,2 C 75 % 1028,8 hPa 0,0 l/m 17,9 km/h N 3,1 C 0,5 C 41,0 km/h
03.01.2013 22:00 7,4 C 76 % 1029,0 hPa 0,0 l/m 18,6 km/h N 3,3 C 0,4 C 43,9 km/h
03.01.2013 23:00 7,4 C 76 % 1028,6 hPa 0,0 l/m 14,9 km/h N 3,5 C 2,1 C 37,8 km/h
04.01.2013 00:00 7,5 C 75 % 1027,7 hPa 0,0 l/m 15,3 km/h N 3,3 C 1,9 C 35,8 km/h
04.01.2013 01:00 7,6 C 74 % 1027,3 hPa 0,0 l/m 14,7 km/h N 3,3 C 2,4 C 41,0 km/h
04.01.2013 02:00 7,9 C 74 % 1027,2 hPa 0,0 l/m 16,9 km/h N 3,5 C 2,0 C 39,0 km/h
04.01.2013 03:00 7,6 C 76 % 1027,0 hPa 0,0 l/m 24,7 km/h N 3,7 C -1,3 C 49,5 km/h
04.01.2013 04:00 7,6 C 77 % 1027,4 hPa 0,0 l/m 23,9 km/h N 3,7 C -1,1 C 49,1 km/h
04.01.2013 05:00 7,7 C 77 % 1027,6 hPa 0,0 l/m 20,1 km/h N 3,9 C 0,2 C 42,7 km/h
04.01.2013 06:00 7,7 C 77 % 1027,5 hPa 0,0 l/m 23,0 km/h N 3,9 C -0,7 C 44,7 km/h
04.01.2013 07:00 7,8 C 76 % 1027,6 hPa 0,0 l/m 19,1 km/h N 3,9 C 0,8 C 39,8 km/h
04.01.2013 08:00 8,1 C 75 % 1027,6 hPa 0,0 l/m 21,6 km/h N 3,9 C 0,3 C 43,0 km/h
04.01.2013 09:00 8,4 C 74 % 1027,9 hPa 0,0 l/m 22,9 km/h N 3,9 C 0,2 C 48,7 km/h
04.01.2013 10:00 8,9 C 70 % 1027,7 hPa 0,0 l/m 21,4 km/h N 3,7 C 1,4 C 45,5 km/h
04.01.2013 11:00 9,1 C 72 % 1027,5 hPa 0,0 l/m 22,3 km/h N 4,4 C 1,5 C 46,1 km/h
04.01.2013 12:00 9,5 C 72 % 1026,8 hPa 0,0 l/m 24,2 km/h N 4,7 C 1,4 C 51,1 km/h
04.01.2013 13:00 9,8 C 71 % 1025,8 hPa 0,0 l/m 26,5 km/h N 4,8 C 1,2 C 47,9 km/h
04.01.2013 14:00 9,8 C 71 % 1025,6 hPa 0,0 l/m 24,1 km/h N 4,7 C 1,7 C 53,1 km/h
04.01.2013 15:00 9,7 C 70 % 1025,7 hPa 0,0 l/m 24,3 km/h N 4,5 C 1,6 C 49,1 km/h
04.01.2013 16:00 9,8 C 70 % 1025,7 hPa 0,0 l/m 19,6 km/h N 4,5 C 3,2 C 46,7 km/h
04.01.2013 17:00 9,4 C 73 % 1025,1 hPa 0,0 l/m 17,0 km/h N 4,7 C 3,6 C 36,2 km/h
04.01.2013 18:00 9,3 C 76 % 1023,9 hPa 0,0 l/m 18,1 km/h N 5,2 C 3,0 C 37,0 km/h
04.01.2013 19:00 8,9 C 81 % 1022,4 hPa 1,3 l/m 16,0 km/h N 5,8 C 3,5 C 40,7 km/h
04.01.2013 20:00 9,6 C 78 % 1021,5 hPa 0,0 l/m 19,3 km/h N 6,0 C 3,1 C 41,8 km/h
04.01.2013 21:00 9,3 C 82 % 1021,3 hPa 3,4 l/m 19,3 km/h N 6,4 C 2,6 C 41,4 km/h
04.01.2013 22:00 9,1 C 83 % 1020,8 hPa 2,9 l/m 17,7 km/h N 6,4 C 3,0 C 38,2 km/h
04.01.2013 23:00 9,2 C 84 % 1020,0 hPa 3,1 l/m 17,3 km/h N 6,5 C 3,2 C 37,4 km/h
05.01.2013 00:00 9,1 C 84 % 1019,3 hPa 2,9 l/m 16,0 km/h N 6,6 C 3,6 C 34,6 km/h
05.01.2013 01:00 9,2 C 84 % 1018,8 hPa 1,8 l/m 18,6 km/h N 6,7 C 2,7 C 40,2 km/h
05.01.2013 02:00 9,2 C 84 % 1018,9 hPa 1,3 l/m 18,8 km/h N 6,7 C 2,7 C 39,8 km/h
05.01.2013 03:00 9,5 C 84 % 1018,7 hPa 0,5 l/m 18,2 km/h N 6,9 C 3,2 C 36,6 km/h
05.01.2013 04:00 9,4 C 84 % 1019,0 hPa 1,0 l/m 15,7 km/h N 6,8 C 4,2 C 35,0 km/h
05.01.2013 05:00 9,0 C 85 % 1019,0 hPa 0,8 l/m 12,5 km/h N 6,6 C 5,1 C 30,5 km/h
05.01.2013 06:00 9,1 C 84 % 1019,3 hPa 0,0 l/m 10,5 km/h N 6,5 C 6,3 C 33,0 km/h
05.01.2013 07:00 9,1 C 84 % 1019,7 hPa 0,3 l/m 11,3 km/h N 6,6 C 5,9 C 32,2 km/h
05.01.2013 08:00 9,3 C 84 % 1019,7 hPa 0,0 l/m 15,3 km/h N 6,7 C 4,2 C 33,8 km/h
05.01.2013 09:00 9,3 C 83 % 1020,2 hPa 0,5 l/m 14,5 km/h N 6,5 C 4,5 C 34,6 km/h
05.01.2013 10:00 9,0 C 84 % 1020,9 hPa 1,8 l/m 12,1 km/h N 6,3 C 5,3 C 35,4 km/h
05.01.2013 11:00 8,8 C 84 % 1021,0 hPa 0,8 l/m 11,3 km/h N 6,2 C 5,5 C 29,8 km/h
05.01.2013 12:00 9,1 C 81 % 1020,7 hPa 0,5 l/m 11,2 km/h N 6,0 C 5,9 C 25,7 km/h
05.01.2013 13:00 9,3 C 79 % 1020,6 hPa 0,0 l/m 12,9 km/h N 5,8 C 5,3 C 29,0 km/h
05.01.2013 14:00 9,2 C 77 % 1021,2 hPa 0,3 l/m 14,9 km/h N 5,3 C 4,2 C 34,6 km/h
05.01.2013 15:00 8,7 C 80 % 1021,9 hPa 0,3 l/m 12,6 km/h N 5,4 C 4,7 C 28,2 km/h
05.01.2013 16:00 8,1 C 80 % 1022,4 hPa 0,0 l/m 13,8 km/h N 4,9 C 3,5 C 32,6 km/h
05.01.2013 17:00 7,8 C 78 % 1022,9 hPa 0,0 l/m 14,7 km/h N 4,1 C 2,6 C 32,6 km/h
05.01.2013 18:00 7,6 C 76 % 1023,5 hPa 0,0 l/m 16,6 km/h N 3,6 C 1,5 C 36,2 km/h
05.01.2013 19:00 7,5 C 76 % 1024,0 hPa 0,0 l/m 17,0 km/h N 3,5 C 1,3 C 35,4 km/h
05.01.2013 20:00 7,3 C 78 % 1024,7 hPa 0,0 l/m 14,8 km/h N 3,7 C 1,9 C 31,8 km/h
05.01.2013 21:00 7,0 C 78 % 1024,9 hPa 0,0 l/m 12,3 km/h N 3,4 C 2,8 C 26,6 km/h
05.01.2013 22:00 7,0 C 78 % 1025,0 hPa 0,0 l/m 12,1 km/h N 3,4 C 3,1 C 28,5 km/h
05.01.2013 23:00 6,8 C 77 % 1024,5 hPa 0,0 l/m 13,6 km/h N 3,1 C 2,0 C 29,8 km/h
06.01.2013 00:00 6,8 C 78 % 1024,3 hPa 0,0 l/m 12,8 km/h N 3,2 C 2,5 C 29,4 km/h
06.01.2013 01:00 7,1 C 78 % 1024,0 hPa 0,0 l/m 12,3 km/h N 3,4 C 2,9 C 29,0 km/h
06.01.2013 02:00 7,1 C 78 % 1023,9 hPa 0,0 l/m 14,1 km/h N 3,4 C 2,1 C 34,2 km/h
06.01.2013 03:00 7,0 C 77 % 1023,8 hPa 0,0 l/m 15,3 km/h N 3,2 C 1,4 C 34,6 km/h
06.01.2013 04:00 6,8 C 78 % 1023,7 hPa 0,0 l/m 15,4 km/h N 3,1 C 1,1 C 34,2 km/h
06.01.2013 05:00 6,5 C 80 % 1023,7 hPa 0,0 l/m 14,1 km/h N 3,3 C 1,4 C 31,4 km/h
06.01.2013 06:00 6,3 C 81 % 1023,8 hPa 0,3 l/m 11,0 km/h N 3,4 C 2,9 C 25,8 km/h
06.01.2013 07:00 5,8 C 83 % 1024,0 hPa 0,3 l/m 8,8 km/h N 3,0 C 3,8 C 20,9 km/h
06.01.2013 08:00 5,8 C 84 % 1023,8 hPa 0,3 l/m 9,6 km/h N 3,4 C 3,3 C 23,3 km/h
06.01.2013 09:00 5,8 C 85 % 1023,7 hPa 1,0 l/m 9,1 km/h N 3,5 C 3,8 C 22,5 km/h
06.01.2013 10:00 5,6 C 85 % 1023,2 hPa 1,6 l/m 6,8 km/h N 3,2 C 5,2 C 16,9 km/h
06.01.2013 11:00 6,2 C 84 % 1022,0 hPa 1,8 l/m 7,9 km/h N 3,6 C 4,6 C 20,1 km/h
06.01.2013 12:00 6,7 C 85 % 1020,5 hPa 1,8 l/m 9,4 km/h N 4,4 C 4,5 C 23,7 km/h
06.01.2013 13:00 6,9 C 85 % 1019,5 hPa 1,3 l/m 13,4 km/h N 4,6 C 2,2 C 31,8 km/h
06.01.2013 14:00 6,8 C 84 % 1018,8 hPa 0,8 l/m 15,6 km/h N 4,4 C 1,0 C 33,8 km/h
06.01.2013 15:00 6,5 C 85 % 1018,5 hPa 1,3 l/m 18,8 km/h N 4,1 C -0,7 C 36,6 km/h
06.01.2013 16:00 6,4 C 84 % 1018,1 hPa 0,8 l/m 19,1 km/h N 3,9 C -1,0 C 38,6 km/h
06.01.2013 17:00 6,8 C 82 % 1017,8 hPa 0,0 l/m 20,0 km/h N 3,9 C -0,8 C 43,5 km/h
06.01.2013 18:00 6,9 C 81 % 1017,8 hPa 0,0 l/m 17,0 km/h N 3,8 C 0,6 C 35,0 km/h
06.01.2013 19:00 6,6 C 82 % 1017,9 hPa 1,0 l/m 16,9 km/h N 3,8 C 0,2 C 35,4 km/h
06.01.2013 20:00 6,1 C 84 % 1018,0 hPa 2,9 l/m 17,6 km/h N 3,5 C -0,7 C 37,4 km/h
06.01.2013 21:00 6,3 C 83 % 1018,2 hPa 0,8 l/m 19,9 km/h N 3,6 C -1,5 C 39,8 km/h
06.01.2013 22:00 6,2 C 85 % 1018,6 hPa 2,1 l/m 16,7 km/h N 3,8 C -0,3 C 33,8 km/h
06.01.2013 23:00 6,2 C 85 % 1019,0 hPa 1,6 l/m 16,8 km/h N 3,9 C -0,3 C 33,8 km/h
Min-Datum _ 31.12.12 31.12.12 01.01.13 - 31.12.12 - 31.12.12 31.12.12 31.12.12
_ Min-Zeit 08:15 12:15 05:30 - 00:00 - 08:15 07:45 00:30
Minimum _ -4,6 C 48 % 1013,6 hPa - 0,0 km/h - -6,8 C -4,4 C 0,0 km/h
Max-Datum _ 31.12.12 31.12.12 03.01.13 04.01.13 03.01.13 - 05.01.13 31.12.12 03.01.13
_ Max-Zeit 12:30 00:00 07:00 21:30 18:00 - 03:00 12:15 16:00
Maximum _ 10,3 C 85 % 1033,3 hPa 3,4 l/m 27,7 km/h
N
- 6,9 C 10,2 C 64,4 km/h
N
Durchschnitt _ 4,1 C 79 % 1023,1 hPa #48,9 l/m 9,4 km/h N 0,7 C 1,0 C 22,2 km/h